createdAt,value
2023-11-18T00:00:45.767Z,17.90
2023-11-18T00:01:45.832Z,15.80
2023-11-18T00:02:45.817Z,18.10
2023-11-18T00:03:45.802Z,17.30
2023-11-18T00:04:45.765Z,13.80
2023-11-18T00:05:45.734Z,16.20
2023-11-18T00:06:45.702Z,15.90
2023-11-18T00:07:45.700Z,16.10
2023-11-18T00:08:45.685Z,17.90
2023-11-18T00:09:45.700Z,16.00
2023-11-18T00:10:45.683Z,16.00
2023-11-18T00:11:45.690Z,15.50
2023-11-18T00:12:45.655Z,14.20
2023-11-18T00:13:45.662Z,16.30
2023-11-18T00:14:45.660Z,15.70
2023-11-18T00:15:45.678Z,12.00
2023-11-18T00:16:45.691Z,12.70
2023-11-18T00:17:45.678Z,9.90
2023-11-18T00:18:45.629Z,9.10
2023-11-18T00:19:45.675Z,10.50
2023-11-18T00:20:45.611Z,7.70
2023-11-18T00:21:45.585Z,7.20
2023-11-18T00:22:45.625Z,7.30
2023-11-18T00:23:45.593Z,6.00
2023-11-18T00:24:45.565Z,5.80
2023-11-18T00:25:45.580Z,8.70
2023-11-18T00:26:45.550Z,7.60
2023-11-18T00:27:45.559Z,7.70
2023-11-18T00:28:45.571Z,8.40
2023-11-18T00:29:45.523Z,8.90
2023-11-18T00:30:45.515Z,7.90
2023-11-18T00:31:45.588Z,7.60
2023-11-18T00:32:45.917Z,6.60
2023-11-18T00:33:45.543Z,8.60
2023-11-18T00:34:45.522Z,8.70
2023-11-18T00:35:45.479Z,6.60
2023-11-18T00:36:45.473Z,8.20
2023-11-18T00:37:45.507Z,8.70
2023-11-18T00:38:45.483Z,6.90
2023-11-18T00:39:45.454Z,7.20
2023-11-18T00:40:45.471Z,7.00
2023-11-18T00:41:45.432Z,9.30
2023-11-18T00:42:45.450Z,6.40
2023-11-18T00:43:45.445Z,6.50
2023-11-18T00:44:45.420Z,8.90
2023-11-18T00:45:45.406Z,9.80
2023-11-18T00:46:45.420Z,6.40
2023-11-18T00:47:45.544Z,6.30
2023-11-18T00:48:45.388Z,10.70
2023-11-18T00:49:45.476Z,7.10
2023-11-18T00:50:45.359Z,8.10
2023-11-18T00:51:45.378Z,6.20
2023-11-18T00:52:45.416Z,7.20
2023-11-18T00:53:45.342Z,6.20
2023-11-18T00:54:45.335Z,7.50
2023-11-18T00:55:45.359Z,9.20
2023-11-18T00:56:45.368Z,7.90
2023-11-18T00:57:45.299Z,9.10
2023-11-18T00:58:46.310Z,11.30
2023-11-18T00:59:45.304Z,8.40
2023-11-18T01:00:45.301Z,7.20
2023-11-18T01:01:45.391Z,7.30
2023-11-18T01:02:45.292Z,11.10
2023-11-18T01:03:45.301Z,6.80
2023-11-18T01:04:45.290Z,6.50
2023-11-18T01:05:45.265Z,9.00
2023-11-18T01:06:45.276Z,8.90
2023-11-18T01:07:45.265Z,6.60
2023-11-18T01:08:45.231Z,8.50
2023-11-18T01:09:45.223Z,9.20
2023-11-18T01:10:45.282Z,8.20
2023-11-18T01:12:07.117Z,11.90
2023-11-18T01:12:46.327Z,12.70
2023-11-18T01:13:45.266Z,11.00
2023-11-18T01:14:45.184Z,12.70
2023-11-18T01:15:45.174Z,13.20
2023-11-18T01:16:45.255Z,13.00
2023-11-18T01:17:45.190Z,12.10
2023-11-18T01:18:45.516Z,10.70
2023-11-18T01:19:45.312Z,12.30
2023-11-18T01:20:45.135Z,11.50
2023-11-18T01:21:45.164Z,11.70
2023-11-18T01:22:45.162Z,14.00
2023-11-18T01:23:45.117Z,14.00
2023-11-18T01:24:45.133Z,14.50
2023-11-18T01:25:45.166Z,11.90
2023-11-18T01:26:45.152Z,13.20
2023-11-18T01:27:45.085Z,12.80
2023-11-18T01:28:45.130Z,11.40
2023-11-18T01:29:45.076Z,10.70
2023-11-18T01:30:45.085Z,13.20
2023-11-18T01:31:52.022Z,13.80
2023-11-18T01:32:47.095Z,11.60
2023-11-18T01:33:45.039Z,10.50
2023-11-18T01:34:45.112Z,11.00
2023-11-18T01:35:45.061Z,8.40
2023-11-18T01:36:45.018Z,7.70
2023-11-18T01:37:45.059Z,9.70
2023-11-18T01:38:44.999Z,9.90
2023-11-18T01:39:45.032Z,9.90
2023-11-18T01:40:45.040Z,10.40
2023-11-18T01:41:44.979Z,13.00
2023-11-18T01:42:45.056Z,11.90
2023-11-18T01:43:45.018Z,9.30
2023-11-18T01:44:45.067Z,10.10
2023-11-18T01:45:44.993Z,9.40
2023-11-18T01:46:44.989Z,12.20
2023-11-18T01:47:44.959Z,10.30
2023-11-18T01:48:44.932Z,9.90
2023-11-18T01:49:44.989Z,8.20
2023-11-18T01:50:44.911Z,10.90
2023-11-18T01:51:44.958Z,9.40
2023-11-18T01:52:46.938Z,10.30
2023-11-18T01:53:45.894Z,10.20
2023-11-18T01:54:44.894Z,8.90
2023-11-18T01:56:17.707Z,10.10
2023-11-18T01:56:44.868Z,9.70
2023-11-18T01:57:45.531Z,10.00
2023-11-18T01:58:44.890Z,9.90
2023-11-18T01:59:44.879Z,12.70
2023-11-18T02:00:44.838Z,13.10
2023-11-18T02:01:44.973Z,12.60
2023-11-18T02:02:45.009Z,12.70
2023-11-18T02:03:44.968Z,10.70
2023-11-18T02:04:44.909Z,12.50
2023-11-18T02:05:44.886Z,13.10
2023-11-18T02:06:44.794Z,10.10
2023-11-18T02:07:44.827Z,11.50
2023-11-18T02:08:44.801Z,16.20
2023-11-18T02:09:44.776Z,9.10
2023-11-18T02:10:44.791Z,10.30
2023-11-18T02:11:44.771Z,6.90
2023-11-18T02:12:44.748Z,7.20
2023-11-18T02:13:44.791Z,6.10
2023-11-18T02:14:44.737Z,6.80
2023-11-18T02:15:44.722Z,8.20
2023-11-18T02:16:44.743Z,7.00
2023-11-18T02:17:44.831Z,9.40
2023-11-18T02:18:44.850Z,7.30
2023-11-18T02:19:44.699Z,8.30
2023-11-18T02:20:44.683Z,7.00
2023-11-18T02:21:44.679Z,7.20
2023-11-18T02:22:44.699Z,8.60
2023-11-18T02:23:44.694Z,6.80
2023-11-18T02:24:44.660Z,6.90
2023-11-18T02:25:44.660Z,12.30
2023-11-18T02:26:44.643Z,13.50
2023-11-18T02:27:44.681Z,8.00
2023-11-18T02:28:44.735Z,7.20
2023-11-18T02:29:44.628Z,7.10
2023-11-18T02:30:44.618Z,8.60
2023-11-18T02:31:44.609Z,7.80
2023-11-18T02:32:44.682Z,10.20
2023-11-18T02:33:44.657Z,7.00
2023-11-18T02:34:44.601Z,8.80
2023-11-18T02:35:44.581Z,9.30
2023-11-18T02:36:44.572Z,9.50
2023-11-18T02:37:44.619Z,7.70
2023-11-18T02:38:44.567Z,8.10
2023-11-18T02:39:44.583Z,9.70
2023-11-18T02:40:44.666Z,7.20
2023-11-18T02:41:44.563Z,8.70
2023-11-18T02:42:44.565Z,9.10
2023-11-18T02:43:44.580Z,10.00
2023-11-18T02:44:44.522Z,8.60
2023-11-18T02:45:44.536Z,11.00
2023-11-18T02:46:44.565Z,12.10
2023-11-18T02:47:44.529Z,13.80
2023-11-18T02:48:44.508Z,10.40
2023-11-18T02:49:44.489Z,12.90
2023-11-18T02:50:44.471Z,15.20
2023-11-18T02:51:44.495Z,12.30
2023-11-18T02:52:44.506Z,12.10
2023-11-18T02:53:44.449Z,10.20
2023-11-18T02:54:44.443Z,12.60
2023-11-18T02:55:44.448Z,12.20
2023-11-18T02:56:44.452Z,10.30
2023-11-18T02:57:44.420Z,9.30
2023-11-18T02:58:44.426Z,5.70
2023-11-18T02:59:44.407Z,8.90
2023-11-18T03:00:44.426Z,9.80
2023-11-18T03:01:44.518Z,8.50
2023-11-18T03:02:44.465Z,8.80
2023-11-18T03:03:44.393Z,7.50
2023-11-18T03:04:44.390Z,7.90
2023-11-18T03:05:44.383Z,8.10
2023-11-18T03:06:44.347Z,7.10
2023-11-18T03:07:44.335Z,6.60
2023-11-18T03:08:44.336Z,9.60
2023-11-18T03:09:44.336Z,6.30
2023-11-18T03:10:44.368Z,6.90
2023-11-18T03:11:44.313Z,6.50
2023-11-18T03:12:44.300Z,9.80
2023-11-18T03:13:44.328Z,9.90
2023-11-18T03:14:44.285Z,10.90
2023-11-18T03:15:44.314Z,10.40
2023-11-18T03:16:44.422Z,11.70
2023-11-18T03:17:44.312Z,12.70
2023-11-18T03:18:44.258Z,8.20
2023-11-18T03:19:44.311Z,9.70
2023-11-18T03:20:44.269Z,8.20
2023-11-18T03:21:44.242Z,10.10
2023-11-18T03:22:44.246Z,11.10
2023-11-18T03:23:44.239Z,10.30
2023-11-18T03:24:44.286Z,8.50
2023-11-18T03:25:44.261Z,8.40
2023-11-18T03:26:44.192Z,11.20
2023-11-18T03:27:44.190Z,9.30
2023-11-18T03:28:44.187Z,8.90
2023-11-18T03:29:44.206Z,9.00
2023-11-18T03:30:44.166Z,8.70
2023-11-18T03:31:44.230Z,10.70
2023-11-18T03:32:44.186Z,8.20
2023-11-18T03:33:44.154Z,7.20
2023-11-18T03:34:44.186Z,6.40
2023-11-18T03:35:44.209Z,9.70
2023-11-18T03:36:44.134Z,9.30
2023-11-18T03:37:44.909Z,6.80
2023-11-18T03:38:44.104Z,9.20
2023-11-18T03:39:44.123Z,10.60
2023-11-18T03:40:44.135Z,12.00
2023-11-18T03:41:44.082Z,9.50
2023-11-18T03:42:44.244Z,11.00
2023-11-18T03:43:44.150Z,10.90
2023-11-18T03:44:44.087Z,13.30
2023-11-18T03:45:44.062Z,10.20
2023-11-18T03:46:44.126Z,10.50
2023-11-18T03:47:44.062Z,9.30
2023-11-18T03:48:44.050Z,8.70
2023-11-18T03:49:44.050Z,10.90
2023-11-18T03:50:44.007Z,10.60
2023-11-18T03:51:44.002Z,8.00
2023-11-18T03:52:44.048Z,9.40
2023-11-18T03:53:44.017Z,10.70
2023-11-18T03:54:43.984Z,10.20
2023-11-18T03:55:43.998Z,14.20
2023-11-18T03:56:43.969Z,11.50
2023-11-18T03:57:43.984Z,12.60
2023-11-18T03:58:43.980Z,12.30
2023-11-18T03:59:43.946Z,10.40
2023-11-18T04:00:43.937Z,13.40
2023-11-18T04:01:44.000Z,13.30
2023-11-18T04:02:43.999Z,11.10
2023-11-18T04:03:43.947Z,10.50
2023-11-18T04:04:43.930Z,14.30
2023-11-18T04:05:43.905Z,18.40
2023-11-18T04:06:43.897Z,17.00
2023-11-18T04:07:43.958Z,21.30
2023-11-18T04:08:43.882Z,20.40
2023-11-18T04:09:43.869Z,18.50
2023-11-18T04:10:43.884Z,20.00
2023-11-18T04:11:43.858Z,13.70
2023-11-18T04:12:43.894Z,12.90
2023-11-18T04:13:43.862Z,12.90
2023-11-18T04:14:43.834Z,11.20
2023-11-18T04:15:43.830Z,14.40
2023-11-18T04:16:43.889Z,19.10
2023-11-18T04:17:43.905Z,15.00
2023-11-18T04:18:43.837Z,13.40
2023-11-18T04:19:43.816Z,11.60
2023-11-18T04:20:43.794Z,7.80
2023-11-18T04:21:43.803Z,12.60
2023-11-18T04:22:43.792Z,12.90
2023-11-18T04:23:43.808Z,12.20
2023-11-18T04:24:43.755Z,13.80
2023-11-18T04:25:43.775Z,10.20
2023-11-18T04:26:43.766Z,12.20
2023-11-18T04:27:46.342Z,12.60
2023-11-18T04:28:43.751Z,11.10
2023-11-18T04:29:43.739Z,12.20
2023-11-18T04:30:43.773Z,10.90
2023-11-18T04:31:43.791Z,12.00
2023-11-18T04:32:44.454Z,9.10
2023-11-18T04:33:43.689Z,7.80
2023-11-18T04:34:44.020Z,10.60
2023-11-18T04:35:43.700Z,6.30
2023-11-18T04:36:43.668Z,11.10
2023-11-18T04:37:43.841Z,5.20
2023-11-18T04:38:43.664Z,6.90
2023-11-18T04:39:43.747Z,5.90
2023-11-18T04:40:43.672Z,7.20
2023-11-18T04:41:43.694Z,8.40
2023-11-18T04:42:43.631Z,8.30
2023-11-18T04:43:45.988Z,7.60
2023-11-18T04:44:43.654Z,7.30
2023-11-18T04:45:43.616Z,8.90
2023-11-18T04:46:43.634Z,9.70
2023-11-18T04:47:43.767Z,8.00
2023-11-18T04:48:43.765Z,6.20
2023-11-18T04:49:43.626Z,7.00
2023-11-18T04:50:43.566Z,6.70
2023-11-18T04:51:43.582Z,5.80
2023-11-18T04:52:43.689Z,6.70
2023-11-18T04:53:43.590Z,7.90
2023-11-18T04:54:43.610Z,8.10
2023-11-18T04:55:43.639Z,7.00
2023-11-18T04:56:43.606Z,9.10
2023-11-18T04:57:43.603Z,7.60
2023-11-18T04:58:43.608Z,8.00
2023-11-18T04:59:43.637Z,6.70
2023-11-18T05:00:43.506Z,6.00
2023-11-18T05:01:43.692Z,9.90
2023-11-18T05:02:43.592Z,9.80
2023-11-18T05:03:43.720Z,11.90
2023-11-18T05:04:43.505Z,11.50
2023-11-18T05:05:43.466Z,9.30
2023-11-18T05:06:43.464Z,9.70
2023-11-18T05:07:43.512Z,11.20
2023-11-18T05:08:43.619Z,11.70
2023-11-18T05:09:43.433Z,14.00
2023-11-18T05:10:43.461Z,14.80
2023-11-18T05:11:43.418Z,10.90
2023-11-18T05:12:43.438Z,10.50
2023-11-18T05:13:43.445Z,12.30
2023-11-18T05:14:43.399Z,13.30
2023-11-18T05:15:43.394Z,11.60
2023-11-18T05:16:43.403Z,10.80
2023-11-18T05:17:43.577Z,11.50
2023-11-18T05:18:43.663Z,11.60
2023-11-18T05:19:43.403Z,10.60
2023-11-18T05:20:43.363Z,9.20
2023-11-18T05:21:43.342Z,13.50
2023-11-18T05:22:43.387Z,9.90
2023-11-18T05:23:43.326Z,10.30
2023-11-18T05:24:45.279Z,9.90
2023-11-18T05:25:44.455Z,13.60
2023-11-18T05:26:43.320Z,19.50
2023-11-18T05:27:43.325Z,18.60
2023-11-18T05:28:43.309Z,26.00
2023-11-18T05:29:43.295Z,23.80
2023-11-18T05:30:43.329Z,25.30
2023-11-18T05:31:43.319Z,25.30
2023-11-18T05:32:43.341Z,19.10
2023-11-18T05:33:43.255Z,18.70
2023-11-18T05:34:43.292Z,15.70
2023-11-18T05:35:43.241Z,14.20
2023-11-18T05:36:43.254Z,16.70
2023-11-18T05:37:43.245Z,13.20
2023-11-18T05:38:43.219Z,16.40
2023-11-18T05:39:43.204Z,13.70
2023-11-18T05:40:43.220Z,16.60
2023-11-18T05:41:43.218Z,15.50
2023-11-18T05:42:43.194Z,16.00
2023-11-18T05:43:43.237Z,18.60
2023-11-18T05:44:43.165Z,23.80
2023-11-18T05:45:43.158Z,21.20
2023-11-18T05:46:43.311Z,12.10
2023-11-18T05:47:43.186Z,11.60
2023-11-18T05:48:44.230Z,13.90
2023-11-18T05:49:43.130Z,12.30
2023-11-18T05:50:43.856Z,11.30
2023-11-18T05:51:43.133Z,11.00
2023-11-18T05:52:43.120Z,11.20
2023-11-18T05:53:43.119Z,11.00
2023-11-18T05:54:43.088Z,9.20
2023-11-18T05:55:43.092Z,9.70
2023-11-18T05:56:43.104Z,8.70
2023-11-18T05:57:43.083Z,9.10
2023-11-18T05:58:43.067Z,8.60
2023-11-18T05:59:43.051Z,6.20
2023-11-18T06:00:43.077Z,6.60
2023-11-18T06:01:43.110Z,8.40
2023-11-18T06:02:43.059Z,9.40
2023-11-18T06:03:43.120Z,11.20
2023-11-18T06:04:43.073Z,7.70
2023-11-18T06:05:43.031Z,9.70
2023-11-18T06:06:43.000Z,8.90
2023-11-18T06:07:43.028Z,6.00
2023-11-18T06:08:43.157Z,6.40
2023-11-18T06:09:42.975Z,9.00
2023-11-18T06:10:43.017Z,6.50
2023-11-18T06:11:42.959Z,10.00
2023-11-18T06:12:42.951Z,9.20
2023-11-18T06:13:42.971Z,8.50
2023-11-18T06:14:43.028Z,6.00
2023-11-18T06:15:42.957Z,6.70
2023-11-18T06:16:43.277Z,7.10
2023-11-18T06:17:44.012Z,7.00
2023-11-18T06:18:42.907Z,7.90
2023-11-18T06:19:42.942Z,8.00
2023-11-18T06:20:42.905Z,6.30
2023-11-18T06:21:42.887Z,7.00
2023-11-18T06:22:42.926Z,7.30
2023-11-18T06:23:42.893Z,6.80
2023-11-18T06:24:42.891Z,6.40
2023-11-18T06:25:42.863Z,8.50
2023-11-18T06:26:42.846Z,7.00
2023-11-18T06:27:42.838Z,5.90
2023-11-18T06:28:42.909Z,7.20
2023-11-18T06:29:42.857Z,7.90
2023-11-18T06:30:42.816Z,7.10
2023-11-18T06:31:43.852Z,7.80
2023-11-18T06:32:42.820Z,7.30
2023-11-18T06:33:42.920Z,8.30
2023-11-18T06:34:42.819Z,6.90
2023-11-18T06:35:42.783Z,7.80
2023-11-18T06:36:42.779Z,8.70
2023-11-18T06:37:42.787Z,7.80
2023-11-18T06:38:42.832Z,7.20
2023-11-18T06:39:42.751Z,9.50
2023-11-18T06:40:42.750Z,12.40
2023-11-18T06:41:42.768Z,9.80
2023-11-18T06:42:42.727Z,9.50
2023-11-18T06:43:42.832Z,8.10
2023-11-18T06:44:42.709Z,8.90
2023-11-18T06:45:42.700Z,21.80
2023-11-18T06:46:42.789Z,17.10
2023-11-18T06:47:42.795Z,13.00
2023-11-18T06:48:42.717Z,12.40
2023-11-18T06:49:42.720Z,17.20
2023-11-18T06:50:42.662Z,12.40
2023-11-18T06:51:42.660Z,12.80
2023-11-18T06:52:44.064Z,12.10
2023-11-18T06:53:42.641Z,12.90
2023-11-18T06:54:42.636Z,13.60
2023-11-18T06:55:42.642Z,26.90
2023-11-18T06:56:42.622Z,18.30
2023-11-18T06:57:42.640Z,15.20
2023-11-18T06:58:42.654Z,17.70
2023-11-18T06:59:42.604Z,17.10
2023-11-18T07:00:42.606Z,14.40
2023-11-18T07:01:42.618Z,13.80
2023-11-18T07:02:42.668Z,15.60
2023-11-18T07:03:42.617Z,12.60
2023-11-18T07:04:42.574Z,13.50
2023-11-18T07:05:42.577Z,10.70
2023-11-18T07:06:42.576Z,16.40
2023-11-18T07:07:42.621Z,13.00
2023-11-18T07:08:42.541Z,12.10
2023-11-18T07:09:42.541Z,11.30
2023-11-18T07:10:42.542Z,9.20
2023-11-18T07:11:42.575Z,10.10
2023-11-18T07:12:42.509Z,10.50
2023-11-18T07:13:42.525Z,6.70
2023-11-18T07:14:42.504Z,7.20
2023-11-18T07:15:42.533Z,6.30
2023-11-18T07:16:42.517Z,8.10
2023-11-18T07:17:42.495Z,6.90
2023-11-18T07:18:42.469Z,6.30
2023-11-18T07:19:42.494Z,7.80
2023-11-18T07:20:42.478Z,8.60
2023-11-18T07:21:42.484Z,8.40
2023-11-18T07:22:42.460Z,7.70
2023-11-18T07:23:42.433Z,7.80
2023-11-18T07:24:42.428Z,7.00
2023-11-18T07:25:42.491Z,8.70
2023-11-18T07:26:42.414Z,6.10
2023-11-18T07:27:42.408Z,7.60
2023-11-18T07:28:42.475Z,7.80
2023-11-18T07:29:42.395Z,7.70
2023-11-18T07:30:42.407Z,7.10
2023-11-18T07:31:42.467Z,8.00
2023-11-18T07:32:42.397Z,8.50
2023-11-18T07:33:44.919Z,7.20
2023-11-18T07:34:43.401Z,8.70
2023-11-18T07:35:42.376Z,7.00
2023-11-18T07:36:42.347Z,8.70
2023-11-18T07:37:42.350Z,8.80
2023-11-18T07:38:42.325Z,8.10
2023-11-18T07:39:42.366Z,9.20
2023-11-18T07:40:42.357Z,9.60
2023-11-18T07:41:42.300Z,9.60
2023-11-18T07:42:42.293Z,10.70
2023-11-18T07:43:42.333Z,10.50
2023-11-18T07:44:42.315Z,11.70
2023-11-18T07:45:42.324Z,10.00
2023-11-18T07:46:42.268Z,10.80
2023-11-18T07:47:42.286Z,10.40
2023-11-18T07:48:42.250Z,9.70
2023-11-18T07:49:42.297Z,10.40
2023-11-18T07:50:42.230Z,10.70
2023-11-18T07:51:42.233Z,9.00
2023-11-18T07:52:42.237Z,11.30
2023-11-18T07:53:42.232Z,9.30
2023-11-18T07:54:42.240Z,9.30
2023-11-18T07:55:42.208Z,11.70
2023-11-18T07:57:14.744Z,11.80
2023-11-18T07:57:42.177Z,13.00
2023-11-18T07:58:42.238Z,14.80
2023-11-18T07:59:42.164Z,13.60
2023-11-18T08:00:42.168Z,13.00
2023-11-18T08:01:42.202Z,13.10
2023-11-18T08:02:42.185Z,13.90
2023-11-18T08:03:42.214Z,12.40
2023-11-18T08:04:42.179Z,14.60
2023-11-18T08:05:42.125Z,14.20
2023-11-18T08:06:42.389Z,16.60
2023-11-18T08:07:42.139Z,16.20
2023-11-18T08:08:42.154Z,13.60
2023-11-18T08:09:42.105Z,17.80
2023-11-18T08:10:42.213Z,16.40
2023-11-18T08:11:42.076Z,13.70
2023-11-18T08:12:42.106Z,13.50
2023-11-18T08:13:42.092Z,15.20
2023-11-18T08:14:42.053Z,16.10
2023-11-18T08:15:42.163Z,15.20
2023-11-18T08:16:42.098Z,16.40
2023-11-18T08:17:42.176Z,16.30
2023-11-18T08:18:42.021Z,14.60
2023-11-18T08:19:42.057Z,16.70
2023-11-18T08:20:42.021Z,16.30
2023-11-18T08:21:42.032Z,16.80
2023-11-18T08:22:42.079Z,14.80
2023-11-18T08:23:41.992Z,16.00
2023-11-18T08:24:41.986Z,17.80
2023-11-18T08:25:42.035Z,19.70
2023-11-18T08:26:42.186Z,21.60
2023-11-18T08:27:41.963Z,22.10
2023-11-18T08:28:42.162Z,23.30
2023-11-18T08:29:41.947Z,21.10
2023-11-18T08:30:41.938Z,21.00
2023-11-18T08:31:42.108Z,19.10
2023-11-18T08:32:41.974Z,18.70
2023-11-18T08:33:41.916Z,21.20
2023-11-18T08:34:41.930Z,18.70
2023-11-18T08:35:41.925Z,16.80
2023-11-18T08:36:41.920Z,23.70
2023-11-18T08:37:41.918Z,19.80
2023-11-18T08:38:41.883Z,19.60
2023-11-18T08:39:41.881Z,19.90
2023-11-18T08:40:41.905Z,24.30
2023-11-18T08:41:41.845Z,20.20
2023-11-18T08:42:41.848Z,18.70
2023-11-18T08:43:41.893Z,19.70
2023-11-18T08:44:41.875Z,16.00
2023-11-18T08:45:41.865Z,16.30
2023-11-18T08:46:41.891Z,17.00
2023-11-18T08:47:41.841Z,14.00
2023-11-18T08:48:41.797Z,15.40
2023-11-18T08:49:41.815Z,14.50
2023-11-18T08:50:41.801Z,16.90
2023-11-18T08:51:41.775Z,16.90
2023-11-18T08:52:41.815Z,15.50
2023-11-18T08:53:41.757Z,14.60
2023-11-18T08:54:41.774Z,14.20
2023-11-18T08:55:43.472Z,14.50
2023-11-18T08:56:43.104Z,15.20
2023-11-18T08:57:41.724Z,14.70
2023-11-18T08:58:41.736Z,16.50
2023-11-18T08:59:41.733Z,15.50
2023-11-18T09:00:41.696Z,16.60
2023-11-18T09:01:41.762Z,17.50
2023-11-18T09:02:52.250Z,16.30
2023-11-18T09:03:43.751Z,16.30
2023-11-18T09:04:41.743Z,14.80
2023-11-18T09:05:41.656Z,15.70
2023-11-18T09:06:41.650Z,16.40
2023-11-18T09:07:41.657Z,17.40
2023-11-18T09:08:41.655Z,14.50
2023-11-18T09:09:41.642Z,14.30
2023-11-18T09:10:41.644Z,17.90
2023-11-18T09:11:41.606Z,15.40
2023-11-18T09:12:41.604Z,17.40
2023-11-18T09:13:41.681Z,17.70
2023-11-18T09:14:41.584Z,16.10
2023-11-18T09:15:41.572Z,17.80
2023-11-18T09:16:41.591Z,17.10
2023-11-18T09:17:41.625Z,15.90
2023-11-18T09:18:43.191Z,15.10
2023-11-18T09:19:42.582Z,17.70
2023-11-18T09:20:41.548Z,16.80
2023-11-18T09:21:41.531Z,14.30
2023-11-18T09:22:41.562Z,14.90
2023-11-18T09:23:41.548Z,15.70
2023-11-18T09:24:41.582Z,15.50
2023-11-18T09:25:41.520Z,16.10
2023-11-18T09:26:41.497Z,19.80
2023-11-18T09:27:41.519Z,15.20
2023-11-18T09:28:41.631Z,14.30
2023-11-18T09:29:41.472Z,14.00
2023-11-18T09:30:41.470Z,16.50
2023-11-18T09:31:41.527Z,14.20
2023-11-18T09:32:41.534Z,13.60
2023-11-18T09:33:41.444Z,14.80
2023-11-18T09:34:41.462Z,15.30
2023-11-18T09:35:41.443Z,15.20
2023-11-18T09:36:41.447Z,15.40
2023-11-18T09:37:41.450Z,15.90
2023-11-18T09:38:41.401Z,14.60
2023-11-18T09:39:41.394Z,12.40
2023-11-18T09:40:41.434Z,13.70
2023-11-18T09:41:41.448Z,15.90
2023-11-18T09:42:41.366Z,16.10
2023-11-18T09:43:41.386Z,16.40
2023-11-18T09:44:41.353Z,14.70
2023-11-18T09:45:41.349Z,16.00
2023-11-18T09:46:41.429Z,15.20
2023-11-18T09:47:41.423Z,18.00
2023-11-18T09:48:41.319Z,17.70
2023-11-18T09:49:41.348Z,16.40
2023-11-18T09:50:41.388Z,17.90
2023-11-18T09:51:41.418Z,16.90
2023-11-18T09:52:41.322Z,16.70
2023-11-18T09:53:41.314Z,17.10
2023-11-18T09:54:41.265Z,18.10
2023-11-18T09:55:41.382Z,20.10
2023-11-18T09:56:41.276Z,20.90
2023-11-18T09:57:41.676Z,20.50
2023-11-18T09:58:41.301Z,19.90
2023-11-18T09:59:41.238Z,19.00
2023-11-18T10:00:41.280Z,19.90
2023-11-18T10:01:41.277Z,19.40
2023-11-18T10:02:41.399Z,20.90
2023-11-18T10:03:41.276Z,18.30
2023-11-18T10:04:41.218Z,23.40
2023-11-18T10:05:41.226Z,22.40
2023-11-18T10:06:41.188Z,21.70
2023-11-18T10:07:41.177Z,21.90
2023-11-18T10:08:41.170Z,22.60
2023-11-18T10:09:41.210Z,21.50
2023-11-18T10:10:41.189Z,21.50
2023-11-18T10:11:41.147Z,22.30
2023-11-18T10:12:41.136Z,21.50
2023-11-18T10:13:41.125Z,21.80
2023-11-18T10:14:41.153Z,24.40
2023-11-18T10:15:41.104Z,24.20
2023-11-18T10:16:41.117Z,24.70
2023-11-18T10:17:41.100Z,19.40
2023-11-18T10:18:41.104Z,21.40
2023-11-18T10:19:41.123Z,22.50
2023-11-18T10:20:41.172Z,21.60
2023-11-18T10:21:41.389Z,19.90
2023-11-18T10:22:41.057Z,20.90
2023-11-18T10:23:41.051Z,22.10
2023-11-18T10:24:41.125Z,17.90
2023-11-18T10:25:41.044Z,22.00
2023-11-18T10:26:41.049Z,20.60
2023-11-18T10:27:41.014Z,20.50
2023-11-18T10:28:41.116Z,20.30
2023-11-18T10:29:41.041Z,15.40
2023-11-18T10:30:40.998Z,20.10
2023-11-18T10:31:40.994Z,18.20
2023-11-18T10:32:41.005Z,20.30
2023-11-18T10:33:41.067Z,17.60
2023-11-18T10:34:41.021Z,19.30
2023-11-18T10:35:40.972Z,18.60
2023-11-18T10:36:40.969Z,17.80
2023-11-18T10:37:40.931Z,18.90
2023-11-18T10:38:40.951Z,18.90
2023-11-18T10:39:40.923Z,17.60
2023-11-18T10:40:40.911Z,18.10
2023-11-18T10:41:40.896Z,17.90
2023-11-18T10:42:40.919Z,17.90
2023-11-18T10:43:40.941Z,16.40
2023-11-18T10:44:40.876Z,17.50
2023-11-18T10:45:43.729Z,18.40
2023-11-18T10:46:41.886Z,18.80
2023-11-18T10:47:40.882Z,18.40
2023-11-18T10:48:40.850Z,19.80
2023-11-18T10:49:40.838Z,17.40
2023-11-18T10:50:40.837Z,18.80
2023-11-18T10:51:40.826Z,18.90
2023-11-18T10:52:40.852Z,17.10
2023-11-18T10:53:40.812Z,16.10
2023-11-18T10:54:40.799Z,18.80
2023-11-18T10:55:40.809Z,18.00
2023-11-18T10:56:40.780Z,17.40
2023-11-18T10:57:40.807Z,19.30
2023-11-18T10:58:40.764Z,20.40
2023-11-18T10:59:40.763Z,18.40
2023-11-18T11:00:40.760Z,18.90
2023-11-18T11:01:40.828Z,20.30
2023-11-18T11:02:40.876Z,17.60
2023-11-18T11:03:40.738Z,17.10
2023-11-18T11:04:40.728Z,16.60
2023-11-18T11:05:40.783Z,16.20
2023-11-18T11:06:40.736Z,18.00
2023-11-18T11:07:40.706Z,20.50
2023-11-18T11:08:42.225Z,21.00
2023-11-18T11:09:41.686Z,20.60
2023-11-18T11:10:40.676Z,21.70
2023-11-18T11:11:40.703Z,18.50
2023-11-18T11:12:40.662Z,17.00
2023-11-18T11:13:40.651Z,17.60
2023-11-18T11:14:40.649Z,18.60
2023-11-18T11:15:48.736Z,18.00
2023-11-18T11:16:42.673Z,21.00
2023-11-18T11:17:40.705Z,18.40
2023-11-18T11:18:40.687Z,19.60
2023-11-18T11:19:40.605Z,18.60
2023-11-18T11:20:40.624Z,19.10
2023-11-18T11:21:40.608Z,18.00
2023-11-18T11:22:40.586Z,19.00
2023-11-18T11:23:40.580Z,18.70
2023-11-18T11:24:40.568Z,18.00
2023-11-18T11:25:40.673Z,19.60
2023-11-18T11:26:40.603Z,17.50
2023-11-18T11:27:40.554Z,18.40
2023-11-18T11:28:40.547Z,18.60
2023-11-18T11:29:40.554Z,18.40
2023-11-18T11:30:41.593Z,22.20
2023-11-18T11:31:40.634Z,19.50
2023-11-18T11:32:40.511Z,17.50
2023-11-18T11:33:40.504Z,18.60
2023-11-18T11:34:40.521Z,17.70
2023-11-18T11:35:40.487Z,19.90
2023-11-18T11:36:40.492Z,19.90
2023-11-18T11:37:40.466Z,20.10
2023-11-18T11:38:40.461Z,17.70
2023-11-18T11:39:40.475Z,19.10
2023-11-18T11:40:40.442Z,18.00
2023-11-18T11:41:40.436Z,17.50
2023-11-18T11:42:40.424Z,20.90
2023-11-18T11:43:40.429Z,16.90
2023-11-18T11:44:40.445Z,18.30
2023-11-18T11:45:40.433Z,19.40
2023-11-18T11:46:40.509Z,19.40
2023-11-18T11:47:40.498Z,21.60
2023-11-18T11:48:40.431Z,19.40
2023-11-18T11:49:40.412Z,21.20
2023-11-18T11:50:40.368Z,20.40
2023-11-18T11:51:40.361Z,22.80
2023-11-18T11:52:40.350Z,19.80
2023-11-18T11:53:40.560Z,17.70
2023-11-18T11:54:40.331Z,19.30
2023-11-18T11:55:40.333Z,18.60
2023-11-18T11:56:40.327Z,16.80
2023-11-18T11:57:41.052Z,21.90
2023-11-18T11:58:40.367Z,16.40
2023-11-18T11:59:40.311Z,16.20
2023-11-18T12:00:40.296Z,16.80
2023-11-18T12:01:40.341Z,16.20
2023-11-18T12:02:40.371Z,18.00
2023-11-18T12:03:42.880Z,17.50
2023-11-18T12:04:40.264Z,19.90
2023-11-18T12:05:40.276Z,18.50
2023-11-18T12:06:40.259Z,20.70
2023-11-18T12:07:40.279Z,16.40
2023-11-18T12:08:40.223Z,19.70
2023-11-18T12:09:40.218Z,18.70
2023-11-18T12:10:40.216Z,14.90
2023-11-18T12:11:40.200Z,17.30
2023-11-18T12:12:40.229Z,15.90
2023-11-18T12:13:40.187Z,17.60
2023-11-18T12:14:40.213Z,13.20
2023-11-18T12:15:40.165Z,16.80
2023-11-18T12:16:40.156Z,15.60
2023-11-18T12:17:40.184Z,16.90
2023-11-18T12:18:41.137Z,14.30
2023-11-18T12:19:40.140Z,12.70
2023-11-18T12:20:40.129Z,13.40
2023-11-18T12:21:40.140Z,14.80
2023-11-18T12:22:40.135Z,14.70
2023-11-18T12:23:40.114Z,15.20
2023-11-18T12:24:40.092Z,14.10
2023-11-18T12:25:40.084Z,14.70
2023-11-18T12:26:40.104Z,16.90
2023-11-18T12:27:40.105Z,16.00
2023-11-18T12:28:40.072Z,16.20
2023-11-18T12:29:40.084Z,16.90
2023-11-18T12:30:40.052Z,21.40
2023-11-18T12:31:40.123Z,18.30
2023-11-18T12:32:40.092Z,18.40
2023-11-18T12:33:40.022Z,16.50
2023-11-18T12:34:40.025Z,15.90
2023-11-18T12:35:40.039Z,13.00
2023-11-18T12:36:40.055Z,14.70
2023-11-18T12:37:39.992Z,12.40
2023-11-18T12:38:39.989Z,13.90
2023-11-18T12:39:39.978Z,12.80
2023-11-18T12:40:39.998Z,14.80
2023-11-18T12:41:39.963Z,17.40
2023-11-18T12:42:39.954Z,14.30
2023-11-18T12:43:39.948Z,14.20
2023-11-18T12:44:39.936Z,16.30
2023-11-18T12:45:39.966Z,16.10
2023-11-18T12:46:39.940Z,16.70
2023-11-18T12:47:39.952Z,17.10
2023-11-18T12:48:39.906Z,15.90
2023-11-18T12:49:39.902Z,16.50
2023-11-18T12:50:39.921Z,17.40
2023-11-18T12:51:39.893Z,16.30
2023-11-18T12:52:39.893Z,16.60
2023-11-18T12:53:39.892Z,15.10
2023-11-18T12:54:39.892Z,18.10
2023-11-18T12:55:39.883Z,16.50
2023-11-18T12:56:39.844Z,17.30
2023-11-18T12:57:39.897Z,15.80
2023-11-18T12:58:39.832Z,12.40
2023-11-18T12:59:39.840Z,17.20
2023-11-18T13:00:39.816Z,14.30